createdAt,value
2022-11-28T00:00:59.864Z,1011.6
2022-11-28T00:03:55.075Z,1011.6
2022-11-28T00:06:55.258Z,1011.6
2022-11-28T00:09:55.454Z,1011.6
2022-11-28T00:12:55.701Z,1011.6
2022-11-28T00:15:56.060Z,1011.5
2022-11-28T00:18:51.169Z,1011.5
2022-11-28T00:21:51.359Z,1011.5
2022-11-28T00:24:51.620Z,1011.5
2022-11-28T00:27:51.862Z,1011.5
2022-11-28T00:30:52.039Z,1011.4
2022-11-28T00:33:52.287Z,1011.4
2022-11-28T00:36:52.491Z,1011.4
2022-11-28T00:39:52.864Z,1011.4
2022-11-28T00:42:52.958Z,1011.3
2022-11-28T00:45:53.249Z,1011.3
2022-11-28T00:48:53.426Z,1011.3
2022-11-28T00:51:53.633Z,1011.2
2022-11-28T00:54:53.884Z,1011.2
2022-11-28T00:57:54.084Z,1011.2
2022-11-28T01:00:54.381Z,1011.1
2022-11-28T01:03:54.515Z,1011.1
2022-11-28T01:06:54.792Z,1011.1
2022-11-28T01:09:54.995Z,1011.1
2022-11-28T01:12:55.246Z,1011
2022-11-28T01:15:55.556Z,1011
2022-11-28T01:18:55.637Z,1011
2022-11-28T01:21:50.842Z,1010.9
2022-11-28T01:24:51.092Z,1010.9
2022-11-28T01:27:51.315Z,1010.8
2022-11-28T01:30:51.516Z,1010.8
2022-11-28T01:33:51.804Z,1010.7
2022-11-28T01:36:51.989Z,1010.7
2022-11-28T01:39:52.234Z,1010.6
2022-11-28T01:42:52.440Z,1010.6
2022-11-28T01:45:52.734Z,1010.5
2022-11-28T01:48:52.896Z,1010.5
2022-11-28T01:51:53.157Z,1010.5
2022-11-28T01:54:53.351Z,1010.4
2022-11-28T01:57:53.620Z,1010.4
2022-11-28T02:00:53.902Z,1010.4
2022-11-28T02:03:54.037Z,1010.4
2022-11-28T02:06:54.290Z,1010.3
2022-11-28T02:09:54.540Z,1010.3
2022-11-28T02:12:54.746Z,1010.2
2022-11-28T02:15:55.004Z,1010.2
2022-11-28T02:18:55.208Z,1010.1
2022-11-28T02:21:55.403Z,1010
2022-11-28T02:24:55.662Z,1009.9
2022-11-28T02:27:55.866Z,1009.8
2022-11-28T02:30:51.114Z,1009.7
2022-11-28T02:33:51.348Z,1009.6
2022-11-28T02:36:51.612Z,1009.6
2022-11-28T02:39:51.795Z,1009.5
2022-11-28T02:42:51.991Z,1009.4
2022-11-28T02:45:52.301Z,1009.3
2022-11-28T02:48:52.446Z,1009.2
2022-11-28T02:51:52.715Z,1009.2
2022-11-28T02:54:52.881Z,1009.2
2022-11-28T02:57:53.167Z,1009.2
2022-11-28T03:00:53.424Z,1009.1
2022-11-28T03:03:53.571Z,1009.1
2022-11-28T03:06:53.746Z,1009.1
2022-11-28T03:09:53.968Z,1009.1
2022-11-28T03:12:54.272Z,1009
2022-11-28T03:15:54.472Z,1009
2022-11-28T03:18:54.676Z,1009
2022-11-28T03:21:54.901Z,1009
2022-11-28T03:24:55.133Z,1009
2022-11-28T03:27:55.346Z,1008.9
2022-11-28T03:30:55.597Z,1008.9
2022-11-28T03:33:55.812Z,1008.9
2022-11-28T03:36:50.985Z,1008.9
2022-11-28T03:39:51.198Z,1008.8
2022-11-28T03:42:51.428Z,1008.8
2022-11-28T03:45:51.780Z,1008.8
2022-11-28T03:48:51.883Z,1008.8
2022-11-28T03:51:52.139Z,1008.8
2022-11-28T03:54:57.331Z,1008.8
2022-11-28T03:57:52.585Z,1008.9
2022-11-28T04:00:52.840Z,1008.9
2022-11-28T04:03:53.128Z,1008.9
2022-11-28T04:06:53.227Z,1008.9
2022-11-28T04:09:53.507Z,1008.9
2022-11-28T04:12:53.701Z,1008.9
2022-11-28T04:15:54.157Z,1008.8
2022-11-28T04:18:54.191Z,1008.8
2022-11-28T04:21:54.399Z,1008.8
2022-11-28T04:24:54.638Z,1008.8
2022-11-28T04:27:54.824Z,1008.8
2022-11-28T04:30:55.074Z,1008.8
2022-11-28T04:33:55.328Z,1008.8
2022-11-28T04:36:55.606Z,1008.8
2022-11-28T04:39:55.749Z,1008.8
2022-11-28T04:42:55.994Z,1008.8
2022-11-28T04:45:51.320Z,1008.8
2022-11-28T04:48:51.412Z,1008.8
2022-11-28T04:51:51.668Z,1008.8
2022-11-28T04:54:51.866Z,1008.8
2022-11-28T04:57:57.089Z,1008.9
2022-11-28T05:00:52.459Z,1008.9
2022-11-28T05:03:52.590Z,1008.9
2022-11-28T05:06:52.820Z,1009
2022-11-28T05:09:53.037Z,1009
2022-11-28T05:12:53.262Z,1009
2022-11-28T05:15:53.454Z,1009
2022-11-28T05:18:53.671Z,1008.9
2022-11-28T05:21:53.954Z,1008.9
2022-11-28T05:24:54.134Z,1008.9
2022-11-28T05:27:54.388Z,1008.9
2022-11-28T05:30:54.577Z,1008.9
2022-11-28T05:33:54.828Z,1008.9
2022-11-28T05:36:55.027Z,1008.9
2022-11-28T05:39:55.268Z,1009
2022-11-28T05:42:55.485Z,1009
2022-11-28T05:45:55.807Z,1009.1
2022-11-28T05:48:55.871Z,1009.1
2022-11-28T05:51:51.129Z,1009.1
2022-11-28T05:54:51.344Z,1009.2
2022-11-28T05:57:51.581Z,1009.2
2022-11-28T06:00:51.816Z,1009.2
2022-11-28T06:03:52.052Z,1009.2
2022-11-28T06:06:52.257Z,1009.2
2022-11-28T06:09:52.492Z,1009.3
2022-11-28T06:12:52.695Z,1009.3
2022-11-28T06:15:52.941Z,1009.2
2022-11-28T06:18:53.178Z,1009.2
2022-11-28T06:21:53.403Z,1009.2
2022-11-28T06:24:53.608Z,1009.2
2022-11-28T06:27:53.865Z,1009.2
2022-11-28T06:30:54.054Z,1009.1
2022-11-28T06:33:54.300Z,1009.1
2022-11-28T06:36:54.441Z,1009
2022-11-28T06:39:54.672Z,1009
2022-11-28T06:42:54.913Z,1008.9
2022-11-28T06:45:55.224Z,1008.9
2022-11-28T06:48:55.494Z,1008.8
2022-11-28T06:51:55.661Z,1008.8
2022-11-28T06:54:50.888Z,1008.8
2022-11-28T06:57:51.178Z,1008.8
2022-11-28T07:00:51.540Z,1008.8
2022-11-28T07:03:51.553Z,1008.9
2022-11-28T07:06:51.851Z,1008.9
2022-11-28T07:09:52.059Z,1008.9
2022-11-28T07:12:52.331Z,1008.9
2022-11-28T07:15:52.524Z,1009
2022-11-28T07:18:52.755Z,1009
2022-11-28T07:21:52.995Z,1009
2022-11-28T07:24:53.168Z,1009
2022-11-28T07:27:53.385Z,1009
2022-11-28T07:30:53.678Z,1009
2022-11-28T07:33:53.841Z,1009
2022-11-28T07:36:54.128Z,1009
2022-11-28T07:39:54.287Z,1009
2022-11-28T07:42:54.589Z,1009.1
2022-11-28T07:46:01.877Z,1009.1
2022-11-28T07:48:54.982Z,1009.1
2022-11-28T07:51:55.207Z,1009.1
2022-11-28T07:54:55.419Z,1009.1
2022-11-28T07:57:55.613Z,1009.1
2022-11-28T08:00:55.867Z,1009.2
2022-11-28T08:03:56.263Z,1009.2
2022-11-28T08:06:51.288Z,1009.2
2022-11-28T08:09:51.582Z,1009.2
2022-11-28T08:12:51.737Z,1009.3
2022-11-28T08:15:51.939Z,1009.3
2022-11-28T08:18:52.136Z,1009.3
2022-11-28T08:21:52.392Z,1009.3
2022-11-28T08:24:52.577Z,1009.3
2022-11-28T08:27:52.722Z,1009.3
2022-11-28T08:30:53.099Z,1009.2
2022-11-28T08:33:53.236Z,1009.2
2022-11-28T08:36:53.395Z,1009.2
2022-11-28T08:39:53.679Z,1009.2
2022-11-28T08:42:53.911Z,1009.2
2022-11-28T08:45:54.247Z,1009.3
2022-11-28T08:48:54.345Z,1009.3
2022-11-28T08:51:54.593Z,1009.3
2022-11-28T08:54:54.765Z,1009.3
2022-11-28T08:57:54.986Z,1009.3
2022-11-28T09:00:55.299Z,1009.3
2022-11-28T09:03:55.602Z,1009.4
2022-11-28T09:06:55.645Z,1009.4
2022-11-28T09:09:55.819Z,1009.4
2022-11-28T09:12:56.121Z,1009.4
2022-11-28T09:15:53.948Z,1009.5
2022-11-28T09:18:51.557Z,1009.5
2022-11-28T09:21:58.179Z,1009.5
2022-11-28T09:24:34.849Z,1009.5
2022-11-28T09:27:27.713Z,1009.5
2022-11-28T09:30:27.931Z,1009.5
2022-11-28T09:33:27.829Z,1009.5
2022-11-28T09:36:19.411Z,1009.5
2022-11-28T09:40:13.980Z,1009.5
2022-11-28T09:42:54.971Z,1009.5
2022-11-28T09:45:55.474Z,1009.5
2022-11-28T09:48:55.460Z,1009.5
2022-11-28T09:51:55.758Z,1009.5
2022-11-28T09:54:50.921Z,1009.5
2022-11-28T09:57:51.221Z,1009.6
2022-11-28T10:00:55.916Z,1009.6
2022-11-28T10:03:51.741Z,1009.6
2022-11-28T10:06:51.813Z,1009.6
2022-11-28T10:09:52.364Z,1009.6
2022-11-28T10:12:52.256Z,1009.6
2022-11-28T10:15:52.552Z,1009.6
2022-11-28T10:18:52.789Z,1009.5
2022-11-28T10:21:59.631Z,1009.5
2022-11-28T10:24:53.280Z,1009.5
2022-11-28T10:27:53.411Z,1009.5
2022-11-28T10:30:53.846Z,1009.5
2022-11-28T10:33:53.899Z,1009.5
2022-11-28T10:36:54.134Z,1009.5
2022-11-28T10:39:54.319Z,1009.5
2022-11-28T10:42:54.590Z,1009.5
2022-11-28T10:45:54.940Z,1009.5
2022-11-28T10:48:55.000Z,1009.5
2022-11-28T10:51:55.257Z,1009.5
2022-11-28T10:54:55.520Z,1009.4
2022-11-28T10:57:55.694Z,1009.4
2022-11-28T11:00:50.902Z,1009.4
2022-11-28T11:03:56.181Z,1009.4
2022-11-28T11:07:14.799Z,1009.4
2022-11-28T11:09:51.613Z,1009.4
2022-11-28T11:12:51.882Z,1009.4
2022-11-28T11:15:52.170Z,1009.4
2022-11-28T11:18:52.339Z,1009.4
2022-11-28T11:21:52.500Z,1009.4
2022-11-28T11:24:52.781Z,1009.4
2022-11-28T11:27:52.969Z,1009.4
2022-11-28T11:30:58.516Z,1009.4
2022-11-28T11:33:53.418Z,1009.4
2022-11-28T11:36:53.675Z,1009.4
2022-11-28T11:39:53.871Z,1009.3
2022-11-28T11:42:54.142Z,1009.3
2022-11-28T11:45:54.413Z,1009.3
2022-11-28T12:10:05.048Z,1009.3
2022-11-28T12:12:55.229Z,1009.3
2022-11-28T12:15:55.621Z,1009.3
2022-11-28T12:18:55.616Z,1009.3
2022-11-28T12:21:55.877Z,1009.3
2022-11-28T12:24:52.015Z,1009.3
2022-11-28T12:27:51.327Z,1009.3
2022-11-28T12:30:56.714Z,1009.3
2022-11-28T12:33:51.735Z,1009.3
2022-11-28T12:36:52.033Z,1009.3
2022-11-28T12:39:52.207Z,1009.3
2022-11-28T12:42:52.456Z,1009.3
2022-11-28T12:45:52.637Z,1009.3
2022-11-28T12:48:53.904Z,1009.2
2022-11-28T12:51:53.170Z,1009.2
2022-11-28T12:54:53.306Z,1009.2
2022-11-28T12:57:53.671Z,1009.2
2022-11-28T13:01:08.831Z,1009.2
2022-11-28T13:03:54.034Z,1009.1
2022-11-28T13:06:54.315Z,1009.1
2022-11-28T13:09:54.478Z,1009.1
2022-11-28T13:12:54.742Z,1009.1
2022-11-28T13:15:55.267Z,1009.1
2022-11-28T13:18:55.247Z,1009.1
2022-11-28T13:21:55.388Z,1009.1
2022-11-28T13:24:55.699Z,1009.1
2022-11-28T13:27:55.843Z,1009.1
2022-11-28T13:30:56.339Z,1009.1
2022-11-28T13:33:51.346Z,1009.1
2022-11-28T13:39:51.835Z,1009.2
2022-11-28T13:43:08.478Z,1009.2
2022-11-28T13:45:52.851Z,1009.2
2022-11-28T13:49:20.220Z,1009.2
2022-11-28T13:51:52.694Z,1009.2
2022-11-28T13:54:52.955Z,1009.2
2022-11-28T13:57:53.170Z,1009.2
2022-11-28T14:01:03.327Z,1009.1
2022-11-28T14:03:53.636Z,1009.1
2022-11-28T14:06:53.799Z,1009.1
2022-11-28T14:09:54.173Z,1009.1
2022-11-28T14:12:54.285Z,1009.1
2022-11-28T14:15:54.677Z,1009.1
2022-11-28T14:18:58.638Z,1009.1
2022-11-28T14:21:54.985Z,1009.1
2022-11-28T14:24:55.156Z,1009.1
2022-11-28T14:27:55.439Z,1009.1
2022-11-28T14:31:00.768Z,1009.1
2022-11-28T14:33:50.889Z,1009.2
2022-11-28T14:36:51.112Z,1009.2
2022-11-28T14:39:51.291Z,1009.2
2022-11-28T14:43:01.295Z,1009.2
2022-11-28T14:45:51.760Z,1009.3
2022-11-28T14:48:52.124Z,1009.3
2022-11-28T14:52:38.371Z,1009.3
2022-11-28T14:54:52.464Z,1009.3
2022-11-28T14:57:52.638Z,1009.3
2022-11-28T15:00:52.929Z,1009.3
2022-11-28T15:03:53.175Z,1009.3
2022-11-28T15:06:53.355Z,1009.3
2022-11-28T15:09:53.580Z,1009.4
2022-11-28T15:12:53.835Z,1009.4
2022-11-28T15:15:54.111Z,1009.4
2022-11-28T15:18:54.234Z,1009.5
2022-11-28T15:21:54.542Z,1009.5
2022-11-28T15:24:54.698Z,1009.6
2022-11-28T15:27:55.023Z,1009.6
2022-11-28T15:30:55.193Z,1009.6
2022-11-28T15:33:55.376Z,1009.6
2022-11-28T15:36:55.637Z,1009.6
2022-11-28T15:39:55.840Z,1009.6
2022-11-28T15:42:51.098Z,1009.7
2022-11-28T15:45:51.295Z,1009.7
2022-11-28T15:48:51.523Z,1009.7
2022-11-28T15:51:51.755Z,1009.7
2022-11-28T15:54:51.979Z,1009.7
2022-11-28T15:57:52.214Z,1009.7
2022-11-28T16:00:52.563Z,1009.6
2022-11-28T16:03:52.720Z,1009.7
2022-11-28T16:06:52.902Z,1009.7
2022-11-28T16:09:53.100Z,1009.7
2022-11-28T16:12:53.349Z,1009.7
2022-11-28T16:15:53.743Z,1009.7
2022-11-28T16:18:53.827Z,1009.7
2022-11-28T16:21:53.997Z,1009.8
2022-11-28T16:24:54.349Z,1009.8
2022-11-28T16:27:54.747Z,1009.8
2022-11-28T16:30:54.685Z,1009.8
2022-11-28T16:33:55.001Z,1009.9
2022-11-28T16:36:55.145Z,1009.9
2022-11-28T16:39:55.422Z,1009.9
2022-11-28T16:42:55.485Z,1009.9
2022-11-28T16:45:55.850Z,1009.9
2022-11-28T16:48:50.958Z,1009.9
2022-11-28T16:51:51.160Z,1009.9
2022-11-28T17:34:42.423Z,1010
2022-11-28T17:36:52.014Z,1010
2022-11-28T17:39:52.240Z,1010.1
2022-11-28T17:42:52.445Z,1010.1
2022-11-28T17:45:52.724Z,1010.2
2022-11-28T17:48:52.892Z,1010.2
2022-11-28T17:51:53.156Z,1010.2
2022-11-28T17:54:53.342Z,1010.3
2022-11-28T17:57:53.578Z,1010.2
2022-11-28T18:01:03.881Z,1010.2
2022-11-28T18:03:54.060Z,1010.2
2022-11-28T18:06:54.273Z,1010.2
2022-11-28T18:09:54.488Z,1010.3
2022-11-28T18:12:54.758Z,1010.3
2022-11-28T18:15:55.030Z,1010.3
2022-11-28T18:18:55.171Z,1010.3
2022-11-28T18:21:55.429Z,1010.3
2022-11-28T18:24:55.624Z,1010.3
2022-11-28T18:27:55.867Z,1010.3
2022-11-28T18:30:56.094Z,1010.3
2022-11-28T18:33:51.322Z,1010.4
2022-11-28T18:36:51.550Z,1010.4
2022-11-28T18:39:51.750Z,1010.4
2022-11-28T18:42:52.001Z,1010.4
2022-11-28T18:45:52.266Z,1010.4
2022-11-28T18:48:52.464Z,1010.4
2022-11-28T18:51:52.691Z,1010.4
2022-11-28T18:54:53.023Z,1010.4
2022-11-28T18:57:53.276Z,1010.5
2022-11-28T19:00:58.654Z,1010.5
2022-11-28T19:03:53.676Z,1010.5
2022-11-28T19:06:53.938Z,1010.5
2022-11-28T19:09:54.156Z,1010.5
2022-11-28T19:12:54.428Z,1010.5
2022-11-28T19:15:54.607Z,1010.5
2022-11-28T19:18:54.912Z,1010.5
2022-11-28T19:21:55.076Z,1010.5
2022-11-28T19:24:55.268Z,1010.5
2022-11-28T19:27:55.574Z,1010.5
2022-11-28T19:30:55.729Z,1010.5
2022-11-28T19:34:01.994Z,1010.5
2022-11-28T19:36:51.338Z,1010.5
2022-11-28T19:39:51.454Z,1010.5
2022-11-28T19:42:51.699Z,1010.6
2022-11-28T19:45:52.001Z,1010.6
2022-11-28T19:48:52.098Z,1010.6
2022-11-28T19:51:52.373Z,1010.6
2022-11-28T19:54:52.738Z,1010.6
2022-11-28T19:57:52.855Z,1010.6
2022-11-28T20:00:58.229Z,1010.7
2022-11-28T20:03:53.354Z,1010.7
2022-11-28T20:06:53.454Z,1010.7
2022-11-28T20:09:53.752Z,1010.7
2022-11-28T20:12:53.916Z,1010.7
2022-11-28T20:15:54.173Z,1010.7
2022-11-28T20:18:54.389Z,1010.7
2022-11-28T20:21:54.620Z,1010.7
2022-11-28T20:24:54.824Z,1010.7
2022-11-28T20:27:55.125Z,1010.7
2022-11-28T20:30:55.305Z,1010.7
2022-11-28T20:33:55.514Z,1010.7
2022-11-28T20:36:55.649Z,1010.8
2022-11-28T20:39:55.872Z,1010.8
2022-11-28T20:42:56.104Z,1010.8
2022-11-28T20:45:51.339Z,1010.9
2022-11-28T20:48:51.543Z,1010.9
2022-11-28T20:51:51.759Z,1010.9
2022-11-28T20:54:52.001Z,1010.9
2022-11-28T20:57:52.230Z,1010.9
2022-11-28T21:00:52.473Z,1010.9
2022-11-28T21:03:52.667Z,1010.9
2022-11-28T21:06:52.919Z,1011
2022-11-28T21:09:53.120Z,1011
2022-11-28T21:12:53.369Z,1010.9
2022-11-28T21:15:53.575Z,1011
2022-11-28T21:18:53.821Z,1011
2022-11-28T21:21:54.024Z,1011
2022-11-28T21:24:54.297Z,1010.9
2022-11-28T21:27:54.474Z,1010.9
2022-11-28T21:30:54.754Z,1010.9
2022-11-28T21:33:54.924Z,1010.9
2022-11-28T21:36:55.154Z,1010.9
2022-11-28T21:39:55.414Z,1010.9
2022-11-28T21:42:55.604Z,1011
2022-11-28T21:45:55.959Z,1011
2022-11-28T21:48:51.068Z,1011
2022-11-28T21:51:51.327Z,1011
2022-11-28T21:54:51.503Z,1011.1
2022-11-28T21:57:51.775Z,1011.1
2022-11-28T22:01:07.009Z,1011.1
2022-11-28T22:03:53.470Z,1011.1
2022-11-28T22:06:52.436Z,1011.1
2022-11-28T22:09:52.672Z,1011.1
2022-11-28T22:12:52.909Z,1011.1
2022-11-28T22:15:53.152Z,1011.1
2022-11-28T22:18:53.365Z,1011.2
2022-11-28T22:21:56.206Z,1011.2
2022-11-28T22:24:53.781Z,1011.2
2022-11-28T22:27:54.066Z,1011.2
2022-11-28T22:30:54.238Z,1011.2
2022-11-28T22:33:54.502Z,1011.2
2022-11-28T22:36:54.692Z,1011.2
2022-11-28T22:39:54.950Z,1011.2
2022-11-28T22:42:55.184Z,1011.2
2022-11-28T22:45:55.447Z,1011.2
2022-11-28T22:48:55.665Z,1011.2
2022-11-28T22:51:50.838Z,1011.2
2022-11-28T22:54:56.091Z,1011.2
2022-11-28T22:57:51.282Z,1011.2
2022-11-28T23:00:51.606Z,1011.2
2022-11-28T23:03:51.845Z,1011.2
2022-11-28T23:06:51.987Z,1011.2
2022-11-28T23:09:52.252Z,1011.3
2022-11-28T23:12:52.493Z,1011.3
2022-11-28T23:15:53.048Z,1011.3
2022-11-28T23:18:52.890Z,1011.3
2022-11-28T23:21:53.178Z,1011.3
2022-11-28T23:24:53.383Z,1011.3
2022-11-28T23:27:53.579Z,1011.3
2022-11-28T23:30:53.821Z,1011.3
2022-11-28T23:33:54.033Z,1011.3
2022-11-28T23:36:54.312Z,1011.3
2022-11-28T23:39:54.505Z,1011.3
2022-11-28T23:42:54.740Z,1011.3
2022-11-28T23:45:55.009Z,1011.4
2022-11-28T23:48:55.185Z,1011.4
2022-11-28T23:51:55.405Z,1011.4
2022-11-28T23:54:55.617Z,1011.4
2022-11-28T23:57:55.879Z,1011.5
